Time;durP1;ratioP1;P1;durP2;ratioP2;P2;SDS_P1;SDS_P2;PMS_P1;PMS_P2;Temp;Humidity;BMP_temperature;BMP_pressure;BME280_temperature;BME280_humidity;BME280_pressure;Samples;Min_cycle;Max_cycle;Signal;HPM_P1;HPM_P2
2023/08/23 00:02:06;;;;;;;;;;;;;;;23.53;56.06;98264.50;4938912;29;19926;-92
2023/08/23 00:04:37;;;;;;;;;;;;;;;23.67;55.94;98267.41;4945748;29;19962;-90
2023/08/23 00:07:05;;;;;;;;;;;;;;;23.68;55.53;98270.97;4934567;29;19931;-91
2023/08/23 00:09:39;;;;;;;;;;;;;;;23.71;55.52;98272.97;4935755;29;19934;-91
2023/08/23 00:12:11;;;;;;;;;;;;;;;23.63;55.72;98260.25;4934400;29;19927;-86
2023/08/23 00:14:39;;;;;;;;;;;;;;;23.45;56.44;98260.13;4934994;28;19957;-87
2023/08/23 00:17:12;;;;;;;;;;;;;;;23.43;56.68;98246.63;4925837;29;19934;-87
2023/08/23 00:19:41;;;;;;;;;;;;;;;23.46;56.42;98254.19;4947738;28;20443;-88
2023/08/23 00:22:13;;;;;;;;;;;;;;;23.49;56.65;98249.88;4935491;29;20021;-87
2023/08/23 00:24:41;;;;;;;;;;;;;;;23.52;56.66;98249.84;4933672;29;19942;-87
2023/08/23 00:27:10;;;;;;;;;;;;;;;23.48;56.42;98254.59;4923703;29;19970;-87
2023/08/23 00:29:39;;;;;;;;;;;;;;;23.35;57.01;98247.78;4936458;29;19945;-88
2023/08/23 00:32:12;;;;;;;;;;;;;;;23.41;56.81;98253.78;4923657;29;19926;-87
2023/08/23 00:34:40;;;;;;;;;;;;;;;23.23;57.15;98254.47;4936003;28;19934;-86
2023/08/23 00:37:09;;;;;;;;;;;;;;;23.35;56.80;98253.34;4920429;29;19931;-87
2023/08/23 00:39:37;;;;;;;;;;;;;;;23.37;57.01;98248.19;4948199;28;19927;-86
2023/08/23 00:42:08;;;;;;;;;;;;;;;23.32;57.04;98245.78;4929319;29;20087;-87
2023/08/23 00:44:36;;;;;;;;;;;;;;;23.42;56.63;98245.06;4929116;29;19927;-88
2023/08/23 00:47:09;;;;;;;;;;;;;;;23.47;56.56;98241.91;4969930;28;20368;-85
2023/08/23 00:49:39;;;;;;;;;;;;;;;23.47;56.68;98233.59;4959344;29;20380;-86
2023/08/23 00:52:07;;;;;;;;;;;;;;;23.46;56.39;98240.31;4931225;29;19970;-87
2023/08/23 00:54:36;;;;;;;;;;;;;;;23.49;57.04;98244.31;4935363;29;20279;-86
2023/08/23 00:57:05;;;;;;;;;;;;;;;23.48;57.19;98249.03;4925701;29;20357;-87
2023/08/23 00:59:36;;;;;;;;;;;;;;;23.45;57.28;98243.50;4955920;28;19973;-87
2023/08/23 01:02:09;;;;;;;;;;;;;;;23.38;57.79;98247.00;4947718;23;19927;-89
2023/08/23 01:04:46;;;;;;;;;;;;;;;23.33;59.02;98249.34;4947451;29;19978;-88
2023/08/23 01:07:16;;;;;;;;;;;;;;;23.20;59.24;98257.22;4952495;29;19965;-88
2023/08/23 01:09:46;;;;;;;;;;;;;;;23.04;59.69;98249.19;4951726;29;20329;-88
2023/08/23 01:12:21;;;;;;;;;;;;;;;23.19;59.22;98241.75;4947886;29;19934;-88
2023/08/23 01:14:52;;;;;;;;;;;;;;;23.21;59.38;98251.28;4942846;29;19931;-88
2023/08/23 01:17:26;;;;;;;;;;;;;;;23.26;59.18;98250.91;4933642;28;20021;-89
2023/08/23 01:19:56;;;;;;;;;;;;;;;23.28;59.03;98253.31;4938558;29;19937;-88
2023/08/23 01:22:29;;;;;;;;;;;;;;;23.30;59.01;98250.94;4939825;29;20365;-88
2023/08/23 01:24:59;;;;;;;;;;;;;;;23.31;59.29;98246.19;4939019;29;19927;-89
2023/08/23 01:27:32;;;;;;;;;;;;;;;23.24;59.43;98249.72;4936066;29;19942;-89
2023/08/23 01:30:07;;;;;;;;;;;;;;;23.03;59.84;98255.13;4933999;29;19926;-89
2023/08/23 01:32:42;;;;;;;;;;;;;;;23.03;59.82;98250.38;4937846;29;19970;-88
2023/08/23 01:35:12;;;;;;;;;;;;;;;23.07;60.12;98248.44;4944358;29;19930;-88
2023/08/23 01:37:48;;;;;;;;;;;;;;;23.12;59.74;98250.03;4929416;29;19927;-88
2023/08/23 01:40:22;;;;;;;;;;;;;;;23.16;60.16;98242.53;4944777;29;19938;-89
2023/08/23 01:42:54;;;;;;;;;;;;;;;23.14;60.00;98251.25;4936351;28;19953;-88
2023/08/23 01:45:23;;;;;;;;;;;;;;;23.17;60.21;98246.88;4924312;28;20640;-88
2023/08/23 01:47:51;;;;;;;;;;;;;;;23.17;60.18;98247.72;4946050;29;19938;-89
2023/08/23 01:50:21;;;;;;;;;;;;;;;23.18;60.16;98245.72;4954685;29;19930;-89
2023/08/23 01:52:51;;;;;;;;;;;;;;;23.18;60.01;98240.19;4944229;29;19935;-89
2023/08/23 01:55:24;;;;;;;;;;;;;;;23.17;60.09;98238.56;4932407;29;20065;-88
2023/08/23 01:57:55;;;;;;;;;;;;;;;23.17;60.13;98238.56;4940757;29;19992;-87
2023/08/23 02:00:23;;;;;;;;;;;;;;;23.16;60.09;98243.31;4939622;28;20458;-88
2023/08/23 02:02:56;;;;;;;;;;;;;;;23.05;60.69;98241.66;4942380;29;20529;-90
2023/08/23 02:05:30;;;;;;;;;;;;;;;22.97;60.99;98247.16;4950433;29;19930;-89
2023/08/23 02:08:02;;;;;;;;;;;;;;;22.80;61.54;98247.00;4945916;29;19966;-87
2023/08/23 02:10:38;;;;;;;;;;;;;;;22.74;61.51;98250.16;4942413;29;20425;-89
2023/08/23 02:13:07;;;;;;;;;;;;;;;22.77;61.36;98254.09;4928229;29;20233;-80
2023/08/23 02:15:39;;;;;;;;;;;;;;;22.81;61.31;98254.94;4935935;28;19931;-80
2023/08/23 02:18:07;;;;;;;;;;;;;;;22.80;61.19;98249.75;4941384;29;19927;-79
2023/08/23 02:20:36;;;;;;;;;;;;;;;22.61;60.94;98250.81;4930369;29;19951;-83
2023/08/23 02:23:04;;;;;;;;;;;;;;;22.59;61.37;98253.19;4938783;29;20135;-79
2023/08/23 02:25:33;;;;;;;;;;;;;;;22.68;61.32;98256.41;4936995;29;19937;-81
2023/08/23 02:28:07;;;;;;;;;;;;;;;22.58;61.17;98254.34;4928187;29;19950;-81
2023/08/23 02:30:35;;;;;;;;;;;;;;;22.64;61.03;98255.59;4925981;28;19990;-79
2023/08/23 02:33:04;;;;;;;;;;;;;;;22.54;61.29;98254.31;4923450;29;20294;-80
2023/08/23 02:35:33;;;;;;;;;;;;;;;22.57;60.79;98250.78;4914578;29;19938;-80
2023/08/23 02:38:02;;;;;;;;;;;;;;;22.51;60.87;98245.97;4918842;29;19926;-80
2023/08/23 02:40:30;;;;;;;;;;;;;;;22.58;60.88;98246.03;4916696;29;19927;-79
2023/08/23 02:43:00;;;;;;;;;;;;;;;22.56;60.90;98246.41;4936760;29;20001;-85
2023/08/23 02:45:30;;;;;;;;;;;;;;;22.59;60.92;98244.88;4920283;28;19934;-80
2023/08/23 02:47:58;;;;;;;;;;;;;;;22.53;61.24;98249.16;4939076;29;19927;-81
2023/08/23 02:50:30;;;;;;;;;;;;;;;22.56;61.06;98257.50;4946258;29;19978;-80
2023/08/23 02:53:00;;;;;;;;;;;;;;;22.37;61.55;98250.22;4928507;29;20021;-80
2023/08/23 02:55:29;;;;;;;;;;;;;;;22.37;61.58;98247.47;4925146;29;19927;-82
2023/08/23 02:57:57;;;;;;;;;;;;;;;22.38;61.60;98251.00;4920708;29;20049;-81
2023/08/23 03:00:26;;;;;;;;;;;;;;;22.27;62.15;98248.16;4933526;28;19972;-81
2023/08/23 03:03:00;;;;;;;;;;;;;;;22.07;63.02;98255.03;4938584;28;19931;-83
2023/08/23 03:05:32;;;;;;;;;;;;;;;22.20;62.45;98253.59;4937673;29;19926;-80
2023/08/23 03:08:06;;;;;;;;;;;;;;;22.02;62.96;98253.38;4927898;28;19927;-80
2023/08/23 03:10:40;;;;;;;;;;;;;;;22.10;63.10;98249.53;4941309;29;19926;-79
2023/08/23 03:13:11;;;;;;;;;;;;;;;22.10;63.18;98248.72;4936304;29;19927;-78
2023/08/23 03:15:43;;;;;;;;;;;;;;;22.19;62.76;98250.03;4934342;29;20346;-79
2023/08/23 03:18:14;;;;;;;;;;;;;;;22.21;62.53;98246.88;4940757;28;19930;-79
2023/08/23 03:20:44;;;;;;;;;;;;;;;22.25;62.52;98252.44;4950554;28;19927;-79
2023/08/23 03:23:25;;;;;;;;;;;;;;;22.14;62.50;98249.56;4931547;29;19926;-90
2023/08/23 03:26:42;;;;;;;;;;;;;;;22.04;63.05;98250.22;4926234;29;19934;-90
2023/08/23 03:29:58;;;;;;;;;;;;;;;22.05;63.14;98255.41;4925379;29;19927;-90
2023/08/23 03:32:34;;;;;;;;;;;;;;;21.81;64.12;98255.91;4938411;28;19931;-89
2023/08/23 03:35:13;;;;;;;;;;;;;;;21.84;63.74;98264.25;4927932;29;19962;-90
2023/08/23 03:37:56;;;;;;;;;;;;;;;21.93;63.41;98259.22;4943927;29;19930;-90
2023/08/23 03:41:26;;;;;;;;;;;;;;;22.02;63.39;98263.66;4948726;29;19926;-90
2023/08/23 03:47:54;;;;;;;;;;;;;;;22.09;63.19;98264.50;4917250;29;20395;-89
2023/08/23 03:51:09;;;;;;;;;;;;;;;;;;4934157;29;20382;-90
2023/08/23 03:54:11;;;;;;;;;;;;;;;22.12;62.86;98257.47;4937554;29;19933;-91
2023/08/23 03:57:21;;;;;;;;;;;;;;;22.10;62.91;98259.78;4940335;29;19937;-90
2023/08/23 03:59:58;;;;;;;;;;;;;;;22.11;62.70;98251.16;4925102;29;20033;-90
2023/08/23 04:02:44;;;;;;;;;;;;;;;22.06;63.05;98248.69;4903294;28;19927;-90
2023/08/23 04:05:19;;;;;;;;;;;;;;;22.08;62.86;98253.84;4931437;29;19948;-89
2023/08/23 04:07:52;;;;;;;;;;;;;;;21.86;63.53;98261.09;4931481;29;20430;-90
